createdAt,value
2023-03-30T00:01:49.344Z,16.93
2023-03-30T00:04:16.370Z,16.92
2023-03-30T00:06:43.083Z,16.75
2023-03-30T00:09:09.630Z,16.72
2023-03-30T00:11:37.896Z,16.84
2023-03-30T00:14:04.441Z,16.85
2023-03-30T00:16:31.497Z,16.90
2023-03-30T00:18:58.020Z,16.90
2023-03-30T00:21:24.814Z,16.90
2023-03-30T00:23:52.281Z,16.84
2023-03-30T00:26:18.982Z,16.91
2023-03-30T00:28:45.629Z,16.96
2023-03-30T00:31:12.916Z,16.86
2023-03-30T00:33:46.539Z,16.91
2023-03-30T00:36:14.718Z,16.90
2023-03-30T00:38:41.406Z,16.91
2023-03-30T00:41:09.169Z,16.92
2023-03-30T00:43:36.086Z,16.89
2023-03-30T00:46:02.666Z,16.82
2023-03-30T00:48:32.584Z,16.93
2023-03-30T00:51:02.812Z,16.86
2023-03-30T00:53:37.161Z,16.84
2023-03-30T00:56:05.123Z,16.83
2023-03-30T00:58:32.122Z,16.82
2023-03-30T01:01:00.278Z,16.90
2023-03-30T01:03:37.227Z,17.00
2023-03-30T01:06:07.488Z,16.92
2023-03-30T01:08:34.633Z,16.90
2023-03-30T01:11:02.198Z,16.83
2023-03-30T01:13:30.144Z,16.84
2023-03-30T01:16:06.102Z,16.73
2023-03-30T01:19:04.467Z,17.00
2023-03-30T01:21:43.006Z,16.75
2023-03-30T01:24:49.330Z,16.85
2023-03-30T01:27:54.949Z,16.52
2023-03-30T01:30:48.798Z,16.52
2023-03-30T01:33:26.548Z,16.57
2023-03-30T01:36:17.901Z,16.56
2023-03-30T01:38:44.533Z,16.43
2023-03-30T01:41:14.228Z,16.43
2023-03-30T01:44:12.403Z,16.77
2023-03-30T01:46:47.879Z,16.72
2023-03-30T01:49:25.830Z,16.75
2023-03-30T01:52:00.906Z,16.72
2023-03-30T01:54:33.377Z,16.66
2023-03-30T01:57:07.784Z,16.54
2023-03-30T01:59:38.240Z,16.52
2023-03-30T02:02:07.402Z,16.42
2023-03-30T02:04:38.897Z,16.52
2023-03-30T02:07:20.536Z,16.61
2023-03-30T02:09:49.186Z,16.55
2023-03-30T02:12:16.361Z,16.50
2023-03-30T02:14:43.611Z,16.49
2023-03-30T02:17:17.443Z,16.57
2023-03-30T02:19:47.658Z,16.57
2023-03-30T02:22:16.753Z,16.56
2023-03-30T02:24:45.364Z,16.54
2023-03-30T02:27:12.417Z,16.49
2023-03-30T02:29:41.883Z,16.55
2023-03-30T02:32:16.759Z,16.65
2023-03-30T02:34:51.475Z,16.45
2023-03-30T02:37:43.488Z,16.76
2023-03-30T02:40:15.482Z,16.58
2023-03-30T02:43:03.943Z,16.63
2023-03-30T02:45:52.061Z,16.77
2023-03-30T02:48:35.812Z,16.78
2023-03-30T02:51:27.457Z,16.66
2023-03-30T02:54:17.952Z,16.64
2023-03-30T02:57:09.787Z,16.63
2023-03-30T02:59:47.181Z,16.55
2023-03-30T03:02:18.243Z,16.56
2023-03-30T03:04:47.750Z,16.42
2023-03-30T03:07:24.851Z,16.28
2023-03-30T03:09:51.808Z,16.31
2023-03-30T03:12:18.701Z,16.25
2023-03-30T03:14:45.395Z,16.30
2023-03-30T03:17:13.694Z,16.28
2023-03-30T03:19:43.985Z,16.36
2023-03-30T03:22:11.242Z,16.36
2023-03-30T03:24:39.801Z,16.35
2023-03-30T03:27:31.610Z,16.28
2023-03-30T03:30:11.811Z,16.31
2023-03-30T03:32:51.928Z,16.35
2023-03-30T03:35:18.985Z,16.39
2023-03-30T03:37:45.722Z,16.36
2023-03-30T03:40:12.450Z,16.42
2023-03-30T03:42:39.720Z,16.39
2023-03-30T03:45:11.545Z,16.49
2023-03-30T03:47:51.523Z,16.44
2023-03-30T03:50:22.856Z,16.40
2023-03-30T03:52:49.920Z,16.29
2023-03-30T03:55:16.662Z,16.41
2023-03-30T03:57:45.037Z,16.29
2023-03-30T04:00:16.524Z,16.37
2023-03-30T04:02:46.319Z,16.40
2023-03-30T04:05:13.105Z,16.41
2023-03-30T04:07:39.642Z,16.51
2023-03-30T04:10:07.219Z,16.49
2023-03-30T04:12:57.509Z,16.56
2023-03-30T04:15:46.182Z,16.50
2023-03-30T04:18:21.662Z,16.50
2023-03-30T04:21:07.499Z,16.45
2023-03-30T04:23:49.041Z,16.42
2023-03-30T04:26:18.636Z,16.15
2023-03-30T04:28:54.295Z,16.19
2023-03-30T04:31:35.514Z,16.19
2023-03-30T04:34:14.983Z,16.20
2023-03-30T04:36:58.461Z,16.37
2023-03-30T04:39:41.555Z,16.43
2023-03-30T04:42:30.638Z,16.09
2023-03-30T04:45:18.421Z,16.39
2023-03-30T04:48:03.514Z,16.43
2023-03-30T04:50:50.286Z,16.26
2023-03-30T04:53:35.593Z,16.21
2023-03-30T04:56:21.984Z,15.90
2023-03-30T04:59:08.868Z,16.20
2023-03-30T05:02:04.639Z,16.17
2023-03-30T05:04:34.111Z,16.37
2023-03-30T05:07:26.877Z,16.02
2023-03-30T05:10:11.399Z,16.18
2023-03-30T05:12:56.052Z,16.30
2023-03-30T05:15:38.913Z,16.21
2023-03-30T05:18:28.373Z,16.05
2023-03-30T05:21:13.993Z,16.10
2023-03-30T05:24:04.107Z,16.11
2023-03-30T05:26:56.814Z,16.32
2023-03-30T05:29:34.358Z,16.39
2023-03-30T05:32:21.667Z,16.38
2023-03-30T05:35:09.149Z,16.38
2023-03-30T05:37:42.465Z,16.49
2023-03-30T05:40:27.019Z,16.28
2023-03-30T05:43:23.428Z,16.22
2023-03-30T05:46:22.859Z,16.36
2023-03-30T05:48:57.632Z,16.39
2023-03-30T05:51:32.833Z,16.35
2023-03-30T05:54:18.344Z,16.18
2023-03-30T05:56:59.253Z,16.31
2023-03-30T05:59:31.816Z,16.38
2023-03-30T06:02:25.229Z,16.22
2023-03-30T06:04:57.132Z,16.21
2023-03-30T06:07:24.342Z,16.31
2023-03-30T06:09:50.904Z,16.29
2023-03-30T06:12:24.602Z,16.22
2023-03-30T06:14:51.469Z,16.09
2023-03-30T06:17:26.007Z,16.13
2023-03-30T06:19:52.891Z,16.17
2023-03-30T06:22:19.556Z,16.27
2023-03-30T06:25:00.827Z,16.52
2023-03-30T06:27:27.418Z,16.56
2023-03-30T06:29:54.948Z,16.63
2023-03-30T06:32:22.336Z,16.72
2023-03-30T06:35:09.094Z,16.80
2023-03-30T06:37:38.542Z,16.76
2023-03-30T06:40:13.270Z,16.82
2023-03-30T06:42:41.701Z,16.95
2023-03-30T06:45:20.799Z,16.86
2023-03-30T06:47:47.845Z,16.91
2023-03-30T06:50:15.309Z,16.96
2023-03-30T06:52:57.867Z,17.42
2023-03-30T06:55:26.905Z,17.72
2023-03-30T06:57:53.832Z,17.97
2023-03-30T07:00:20.824Z,18.04
2023-03-30T07:03:06.554Z,17.89
2023-03-30T07:05:50.181Z,17.82
2023-03-30T07:08:35.831Z,18.36
2023-03-30T07:11:05.851Z,21.74
2023-03-30T07:13:35.006Z,23.98
2023-03-30T07:16:01.696Z,23.50
2023-03-30T07:18:31.471Z,22.47
2023-03-30T07:21:02.111Z,22.61
2023-03-30T07:23:32.397Z,23.33
2023-03-30T07:25:59.042Z,22.93
2023-03-30T07:28:34.623Z,22.53
2023-03-30T07:31:06.190Z,22.51
2023-03-30T07:33:34.119Z,22.65
2023-03-30T07:36:04.002Z,23.67
2023-03-30T07:38:32.619Z,25.54
2023-03-30T07:40:59.487Z,26.91
2023-03-30T07:43:27.337Z,27.71
2023-03-30T07:45:56.060Z,28.19
2023-03-30T07:48:29.596Z,27.91
2023-03-30T07:51:00.734Z,28.04
2023-03-30T07:53:28.913Z,27.82
2023-03-30T07:55:55.758Z,27.69
2023-03-30T07:58:30.301Z,28.26
2023-03-30T08:00:57.266Z,29.23
2023-03-30T08:03:37.067Z,30.11
2023-03-30T08:06:06.684Z,30.27
2023-03-30T08:08:39.061Z,29.60
2023-03-30T08:11:06.923Z,30.87
2023-03-30T08:13:33.881Z,31.53
2023-03-30T08:16:00.449Z,31.00
2023-03-30T08:18:28.994Z,30.87
2023-03-30T08:20:56.082Z,30.28
2023-03-30T08:23:22.676Z,29.16
2023-03-30T08:25:52.673Z,27.84
2023-03-30T08:28:22.608Z,29.67
2023-03-30T08:30:49.140Z,30.05
2023-03-30T08:33:16.186Z,30.46
2023-03-30T08:35:47.458Z,30.73
2023-03-30T08:38:17.667Z,28.94
2023-03-30T08:40:47.068Z,28.10
2023-03-30T08:43:32.766Z,28.31
2023-03-30T08:46:00.777Z,27.79
2023-03-30T08:48:29.438Z,27.13
2023-03-30T08:50:58.798Z,26.77
2023-03-30T08:53:27.576Z,26.59
2023-03-30T08:56:03.213Z,26.35
2023-03-30T08:58:39.939Z,25.93
2023-03-30T09:01:15.975Z,25.56
2023-03-30T09:03:59.148Z,25.12
2023-03-30T09:06:31.143Z,24.91
2023-03-30T09:08:57.933Z,24.51
2023-03-30T09:11:33.905Z,24.66
2023-03-30T09:14:03.732Z,24.42
2023-03-30T09:17:04.987Z,24.50
2023-03-30T09:19:36.599Z,24.23
2023-03-30T09:22:05.816Z,24.08
2023-03-30T09:24:32.496Z,24.08
2023-03-30T09:27:03.412Z,24.11
2023-03-30T09:29:33.604Z,24.31
2023-03-30T09:32:00.097Z,23.61
2023-03-30T09:34:30.434Z,23.69
2023-03-30T09:37:01.459Z,23.68
2023-03-30T09:39:30.362Z,24.28
2023-03-30T09:42:15.292Z,23.44
2023-03-30T09:44:48.924Z,23.22
2023-03-30T09:47:24.468Z,23.41
2023-03-30T09:50:03.702Z,23.36
2023-03-30T09:52:32.414Z,23.28
2023-03-30T09:55:22.160Z,23.53
2023-03-30T09:57:50.958Z,23.22
2023-03-30T10:00:32.391Z,23.15
2023-03-30T10:03:04.211Z,22.91
2023-03-30T10:05:32.378Z,22.77
2023-03-30T10:08:01.260Z,22.57
2023-03-30T10:10:36.066Z,22.64
2023-03-30T10:13:08.747Z,22.53
2023-03-30T10:15:39.059Z,22.67
2023-03-30T10:18:25.740Z,22.73
2023-03-30T10:20:54.358Z,22.54
2023-03-30T10:23:24.308Z,22.53
2023-03-30T10:25:52.175Z,22.62
2023-03-30T10:28:21.904Z,22.68
2023-03-30T10:30:51.686Z,22.73
2023-03-30T10:33:18.695Z,22.53
2023-03-30T10:35:47.883Z,22.69
2023-03-30T10:38:15.129Z,22.73
2023-03-30T10:40:44.349Z,22.82
2023-03-30T10:43:21.554Z,22.77
2023-03-30T10:45:49.979Z,22.84
2023-03-30T10:48:35.692Z,23.16
2023-03-30T10:51:29.604Z,23.26
2023-03-30T10:54:07.296Z,23.75
2023-03-30T10:56:48.394Z,24.23
2023-03-30T10:59:36.662Z,24.32
2023-03-30T11:02:23.554Z,24.25
2023-03-30T11:05:06.060Z,24.13
2023-03-30T11:07:44.224Z,24.00
2023-03-30T11:10:22.543Z,24.17
2023-03-30T11:12:54.924Z,24.09
2023-03-30T11:15:46.623Z,24.21
2023-03-30T11:18:24.152Z,23.97
2023-03-30T11:21:06.336Z,24.22
2023-03-30T11:23:42.873Z,24.37
2023-03-30T11:26:17.672Z,24.46
2023-03-30T11:28:50.634Z,24.31
2023-03-30T11:31:40.651Z,24.15
2023-03-30T11:34:17.618Z,23.93
2023-03-30T11:36:49.666Z,24.10
2023-03-30T11:39:29.355Z,24.12
2023-03-30T11:42:23.168Z,24.62
2023-03-30T11:44:49.587Z,25.17
2023-03-30T11:47:37.504Z,24.84
2023-03-30T11:50:24.415Z,24.94
2023-03-30T11:53:04.913Z,24.90
2023-03-30T11:55:48.067Z,25.37
2023-03-30T11:58:17.650Z,25.31
2023-03-30T12:01:26.337Z,25.93
2023-03-30T12:04:11.978Z,26.46
2023-03-30T12:06:49.592Z,26.79
2023-03-30T12:09:16.688Z,26.54
2023-03-30T12:11:47.502Z,26.67
2023-03-30T12:14:35.779Z,27.44
2023-03-30T12:17:43.884Z,27.67
2023-03-30T12:20:10.647Z,27.50
2023-03-30T12:22:44.287Z,27.78
2023-03-30T12:25:30.650Z,28.28
2023-03-30T12:28:12.016Z,28.33
2023-03-30T12:30:54.341Z,28.56
2023-03-30T12:33:49.829Z,28.82
2023-03-30T12:36:28.449Z,28.39
2023-03-30T12:39:02.139Z,28.47
2023-03-30T12:41:37.671Z,28.35
2023-03-30T12:44:25.249Z,27.91
2023-03-30T12:47:02.930Z,27.87
2023-03-30T12:49:46.155Z,28.31
2023-03-30T12:52:24.023Z,28.29
2023-03-30T12:55:08.639Z,28.69
2023-03-30T12:57:50.776Z,28.65
2023-03-30T13:00:48.642Z,28.68
2023-03-30T13:03:28.058Z,28.54
2023-03-30T13:05:58.390Z,28.20
2023-03-30T13:08:33.063Z,28.18
2023-03-30T13:11:15.248Z,28.39
2023-03-30T13:14:05.010Z,28.05
2023-03-30T13:16:50.250Z,27.85
2023-03-30T13:19:33.969Z,26.98
2023-03-30T13:22:12.863Z,26.85
2023-03-30T13:24:43.498Z,26.99
2023-03-30T13:27:19.130Z,26.20
2023-03-30T13:30:12.897Z,26.00
2023-03-30T13:32:50.737Z,26.25
2023-03-30T13:35:33.077Z,26.24
2023-03-30T13:38:22.714Z,25.70
2023-03-30T13:41:04.431Z,25.65
2023-03-30T13:44:03.152Z,25.63
2023-03-30T13:46:58.573Z,25.50
2023-03-30T13:49:55.237Z,25.17
2023-03-30T13:52:33.906Z,24.31
2023-03-30T13:55:02.233Z,23.58
2023-03-30T13:57:40.157Z,23.16
2023-03-30T14:00:28.383Z,22.35
2023-03-30T14:02:54.967Z,22.06
2023-03-30T14:05:24.100Z,21.56
2023-03-30T14:07:55.147Z,21.46
2023-03-30T14:10:22.307Z,21.32
2023-03-30T14:12:53.123Z,21.36
2023-03-30T14:15:23.052Z,21.42
2023-03-30T14:17:59.964Z,21.28
2023-03-30T14:20:42.171Z,21.26
2023-03-30T14:23:17.505Z,21.27
2023-03-30T14:25:45.456Z,21.08
2023-03-30T14:28:17.225Z,21.09
2023-03-30T14:30:55.537Z,21.18
2023-03-30T14:33:22.320Z,21.07
2023-03-30T14:35:59.300Z,21.19
2023-03-30T14:38:30.064Z,21.08
2023-03-30T14:40:56.809Z,21.12
2023-03-30T14:43:25.702Z,20.98
2023-03-30T14:45:54.113Z,20.85
2023-03-30T14:48:28.855Z,20.69
2023-03-30T14:50:55.584Z,20.60
2023-03-30T14:53:26.441Z,20.46
2023-03-30T14:55:57.102Z,20.41
2023-03-30T14:58:26.168Z,20.17
2023-03-30T15:01:01.121Z,19.97
2023-03-30T15:03:33.805Z,19.18
2023-03-30T15:06:02.605Z,18.82
2023-03-30T15:08:32.499Z,18.82
2023-03-30T15:11:04.804Z,18.83
2023-03-30T15:13:36.685Z,18.90
2023-03-30T15:16:04.614Z,18.96
2023-03-30T15:18:32.192Z,18.95
2023-03-30T15:20:59.260Z,18.96
2023-03-30T15:23:31.737Z,19.16
2023-03-30T15:26:00.324Z,19.40
2023-03-30T15:28:31.159Z,19.63
2023-03-30T15:30:58.659Z,19.63
2023-03-30T15:33:36.480Z,19.62
2023-03-30T15:36:11.490Z,19.73
2023-03-30T15:38:47.674Z,19.82
2023-03-30T15:41:42.979Z,19.77
2023-03-30T15:44:12.024Z,19.71
2023-03-30T15:46:40.154Z,19.70
2023-03-30T15:49:13.474Z,19.67
2023-03-30T15:51:43.132Z,19.53
2023-03-30T15:54:15.495Z,19.67
2023-03-30T15:56:55.194Z,19.69
2023-03-30T15:59:24.658Z,19.75
2023-03-30T16:02:04.688Z,19.84
2023-03-30T16:04:34.619Z,19.85
2023-03-30T16:07:02.107Z,19.80
2023-03-30T16:09:28.692Z,19.71
2023-03-30T16:11:55.277Z,19.74
2023-03-30T16:14:21.931Z,19.73
2023-03-30T16:16:48.669Z,19.87
2023-03-30T16:19:18.545Z,20.04
2023-03-30T16:22:31.415Z,20.06
2023-03-30T16:24:57.933Z,20.02
2023-03-30T16:27:24.494Z,20.05
2023-03-30T16:29:53.005Z,20.23
2023-03-30T16:32:19.597Z,20.31
2023-03-30T16:34:46.235Z,20.18
2023-03-30T16:37:12.780Z,19.95
2023-03-30T16:39:39.361Z,20.12
2023-03-30T16:42:05.889Z,19.82
2023-03-30T16:44:32.402Z,19.37
2023-03-30T16:46:59.034Z,19.07
2023-03-30T16:49:26.308Z,19.16
2023-03-30T16:51:55.393Z,19.05
2023-03-30T16:54:31.064Z,19.77
2023-03-30T16:56:58.566Z,19.38
2023-03-30T16:59:26.844Z,19.27
2023-03-30T17:01:53.609Z,19.16
2023-03-30T17:04:20.335Z,19.07
2023-03-30T17:06:46.976Z,19.26
2023-03-30T17:09:16.990Z,19.42
2023-03-30T17:11:52.645Z,19.70
2023-03-30T17:14:20.854Z,19.62
2023-03-30T17:16:47.577Z,19.67
2023-03-30T17:19:14.255Z,19.63
2023-03-30T17:22:05.664Z,19.95
2023-03-30T17:24:32.208Z,19.67
2023-03-30T17:26:59.387Z,19.59
2023-03-30T17:29:26.066Z,19.62
2023-03-30T17:31:52.616Z,19.60
2023-03-30T17:34:19.168Z,19.52
2023-03-30T17:36:45.732Z,19.47
2023-03-30T17:39:13.485Z,19.46
2023-03-30T17:41:41.354Z,19.43
2023-03-30T17:44:07.897Z,19.42
2023-03-30T17:46:34.504Z,19.40
2023-03-30T17:49:01.383Z,19.36
2023-03-30T17:51:28.046Z,19.33
2023-03-30T17:54:05.559Z,19.45
2023-03-30T17:56:32.108Z,19.27
2023-03-30T17:58:58.852Z,19.24
2023-03-30T18:01:25.579Z,19.26
2023-03-30T18:03:52.242Z,19.24
2023-03-30T18:06:19.009Z,19.24
2023-03-30T18:08:45.750Z,19.21
2023-03-30T18:11:12.320Z,19.14
2023-03-30T18:13:38.925Z,19.18
2023-03-30T18:16:06.027Z,19.19
2023-03-30T18:18:32.680Z,19.13
2023-03-30T18:21:03.112Z,19.17
2023-03-30T18:23:30.667Z,19.72
2023-03-30T18:25:57.260Z,19.09
2023-03-30T18:28:26.027Z,19.02
2023-03-30T18:30:55.258Z,18.98
2023-03-30T18:33:22.174Z,18.96
2023-03-30T18:35:50.079Z,18.93
2023-03-30T18:38:19.081Z,18.87
2023-03-30T18:40:49.389Z,18.84
2023-03-30T18:43:16.555Z,18.85
2023-03-30T18:45:46.170Z,18.83
2023-03-30T18:48:14.682Z,18.81
2023-03-30T18:50:42.872Z,18.78
2023-03-30T18:53:13.726Z,18.80
2023-03-30T18:55:43.148Z,18.84
2023-03-30T18:58:14.614Z,18.81
2023-03-30T19:00:41.176Z,18.71
2023-03-30T19:03:08.187Z,18.58
2023-03-30T19:05:35.232Z,18.62
2023-03-30T19:08:02.110Z,18.54
2023-03-30T19:10:30.882Z,18.59
2023-03-30T19:12:57.499Z,18.65
2023-03-30T19:15:33.056Z,18.82
2023-03-30T19:18:00.824Z,18.66
2023-03-30T19:20:28.474Z,18.54
2023-03-30T19:22:55.101Z,18.59
2023-03-30T19:25:22.825Z,18.60
2023-03-30T19:28:01.831Z,18.41
2023-03-30T19:30:31.395Z,18.62
2023-03-30T19:32:59.318Z,18.58
2023-03-30T19:35:26.254Z,18.70
2023-03-30T19:37:53.070Z,18.39
2023-03-30T19:40:20.735Z,18.27
2023-03-30T19:42:48.636Z,18.51
2023-03-30T19:45:17.616Z,18.60
2023-03-30T19:47:44.215Z,18.51
2023-03-30T19:50:15.352Z,18.59
2023-03-30T19:52:42.007Z,18.43
2023-03-30T19:55:10.346Z,18.52
2023-03-30T19:57:37.754Z,18.57
2023-03-30T20:00:12.543Z,18.62
2023-03-30T20:02:40.037Z,18.65
2023-03-30T20:05:06.893Z,18.61
2023-03-30T20:07:33.452Z,18.60
2023-03-30T20:10:00.307Z,18.55
2023-03-30T20:12:26.868Z,18.53
2023-03-30T20:14:53.486Z,18.40
2023-03-30T20:17:21.924Z,18.31
2023-03-30T20:19:48.479Z,18.24
2023-03-30T20:22:15.056Z,18.20
2023-03-30T20:24:43.430Z,18.16
2023-03-30T20:27:11.268Z,18.13
2023-03-30T20:29:37.795Z,18.11
2023-03-30T20:32:04.500Z,18.06
2023-03-30T20:34:31.686Z,18.05
2023-03-30T20:36:58.290Z,18.03
2023-03-30T20:39:26.823Z,18.07
2023-03-30T20:41:58.334Z,18.16
2023-03-30T20:44:31.836Z,18.11
2023-03-30T20:46:58.807Z,18.09
2023-03-30T20:49:25.857Z,18.05
2023-03-30T20:51:53.175Z,18.02
2023-03-30T20:54:20.577Z,17.99
2023-03-30T20:56:47.252Z,17.99
2023-03-30T20:59:13.819Z,17.98
2023-03-30T21:01:41.123Z,17.97
2023-03-30T21:04:08.376Z,17.96
2023-03-30T21:06:34.936Z,18.02
2023-03-30T21:09:03.921Z,18.08
2023-03-30T21:11:33.467Z,18.06
2023-03-30T21:14:01.459Z,18.01
2023-03-30T21:16:28.386Z,17.99
2023-03-30T21:18:54.904Z,17.91
2023-03-30T21:21:21.733Z,18.01
2023-03-30T21:23:49.046Z,18.09
2023-03-30T21:26:18.460Z,18.02
2023-03-30T21:28:45.007Z,18.01
2023-03-30T21:31:17.686Z,18.05
2023-03-30T21:33:44.458Z,17.97
2023-03-30T21:36:11.526Z,18.05
2023-03-30T21:38:38.967Z,18.04
2023-03-30T21:41:11.481Z,18.15
2023-03-30T21:43:44.135Z,18.07
2023-03-30T21:46:16.418Z,18.06
2023-03-30T21:48:45.429Z,18.02
2023-03-30T21:51:14.765Z,18.05
2023-03-30T21:53:42.550Z,18.03
2023-03-30T21:56:09.967Z,18.03
2023-03-30T21:58:36.847Z,17.96
2023-03-30T22:01:11.729Z,18.00
2023-03-30T22:03:39.785Z,17.99
2023-03-30T22:06:08.246Z,17.99
2023-03-30T22:08:35.403Z,17.98
2023-03-30T22:11:12.014Z,18.07
2023-03-30T22:13:38.625Z,17.99
2023-03-30T22:16:07.564Z,18.00
2023-03-30T22:18:34.801Z,17.96
2023-03-30T22:21:03.132Z,17.95
2023-03-30T22:23:30.190Z,17.89
2023-03-30T22:25:57.239Z,17.90
2023-03-30T22:28:23.937Z,17.96
2023-03-30T22:30:50.510Z,17.90
2023-03-30T22:33:17.651Z,17.90
2023-03-30T22:35:46.149Z,17.92
2023-03-30T22:38:13.232Z,17.83
2023-03-30T22:40:41.931Z,17.89
2023-03-30T22:43:12.722Z,17.92
2023-03-30T22:45:40.020Z,17.89
2023-03-30T22:48:06.667Z,17.83
2023-03-30T22:50:34.003Z,17.86
2023-03-30T22:53:00.990Z,17.89
2023-03-30T22:55:27.689Z,17.86
2023-03-30T22:57:55.713Z,17.86
2023-03-30T23:00:22.460Z,17.85
2023-03-30T23:02:50.010Z,17.89
2023-03-30T23:05:17.090Z,17.89
2023-03-30T23:07:48.242Z,17.90
2023-03-30T23:10:15.736Z,18.51
2023-03-30T23:12:43.021Z,17.99
2023-03-30T23:15:10.909Z,17.95
2023-03-30T23:17:38.344Z,17.93
2023-03-30T23:20:06.580Z,17.92
2023-03-30T23:22:33.164Z,17.96
2023-03-30T23:24:59.695Z,17.93
2023-03-30T23:27:26.305Z,17.97
2023-03-30T23:29:53.045Z,17.99
2023-03-30T23:32:19.683Z,17.99
2023-03-30T23:34:46.754Z,17.99
2023-03-30T23:37:13.347Z,18.00
2023-03-30T23:39:39.960Z,17.95
2023-03-30T23:42:07.068Z,17.91
2023-03-30T23:44:33.860Z,17.85
2023-03-30T23:47:00.861Z,17.88
2023-03-30T23:49:27.440Z,17.84
2023-03-30T23:51:54.046Z,17.86
2023-03-30T23:54:21.165Z,17.82
2023-03-30T23:56:48.976Z,17.84
2023-03-30T23:59:16.046Z,17.79
